Time;durP1;ratioP1;P1;durP2;ratioP2;P2;SDS_P1;SDS_P2;PMS_P1;PMS_P2;Temp;Humidity;BMP_temperature;BMP_pressure;BME280_temperature;BME280_humidity;BME280_pressure;Samples;Min_cycle;Max_cycle;Signal;HPM_P1;HPM_P2
2021/09/01 00:02:08;;;;;;;5.05;3.20;;;12.80;99.90;;;;;;5111314;28;20020;-77
2021/09/01 00:04:33;;;;;;;4.72;2.80;;;12.70;99.90;;;;;;5094985;28;20056;-76
2021/09/01 00:06:59;;;;;;;4.68;3.28;;;12.70;99.90;;;;;;5079437;28;20069;-77
2021/09/01 00:09:25;;;;;;;3.10;2.72;;;12.70;99.90;;;;;;5094992;28;20536;-76
2021/09/01 00:11:53;;;;;;;4.80;3.00;;;12.80;99.90;;;;;;5094990;28;20462;-78
2021/09/01 00:14:20;;;;;;;6.50;2.60;;;12.70;99.90;;;;;;5096984;28;20024;-76
2021/09/01 00:16:46;;;;;;;4.07;2.10;;;12.70;99.90;;;;;;5075665;28;20036;-76
2021/09/01 00:19:12;;;;;;;2.72;2.53;;;12.70;99.90;;;;;;5094930;28;20453;-76
2021/09/01 00:21:39;;;;;;;1.70;1.60;;;12.70;99.90;;;;;;5108967;28;20050;-77
2021/09/01 00:24:05;;;;;;;2.30;2.10;;;12.70;99.90;;;;;;5100787;28;20028;-76
2021/09/01 00:26:31;;;;;;;1.55;1.45;;;12.70;99.90;;;;;;5095015;28;20056;-77
2021/09/01 00:28:58;;;;;;;2.38;1.98;;;12.70;99.90;;;;;;5076498;28;20024;-77
2021/09/01 00:31:24;;;;;;;3.30;1.83;;;12.70;99.90;;;;;;5110752;28;20020;-76
2021/09/01 00:33:50;;;;;;;1.90;1.52;;;12.70;99.90;;;;;;5108611;27;20027;-77
2021/09/01 00:36:17;;;;;;;2.55;1.95;;;12.60;99.90;;;;;;5099152;28;20385;-76
2021/09/01 00:38:43;;;;;;;2.40;1.95;;;12.60;99.90;;;;;;5097667;28;20107;-77
2021/09/01 00:41:16;;;;;;;3.95;2.55;;;12.60;99.90;;;;;;5080247;28;20025;-77
2021/09/01 00:43:41;;;;;;;4.10;2.33;;;12.60;99.90;;;;;;5108960;28;20036;-77
2021/09/01 00:46:07;;;;;;;2.47;2.17;;;12.60;99.90;;;;;;5094613;28;20040;-76
2021/09/01 00:48:33;;;;;;;3.85;2.20;;;12.60;99.90;;;;;;5093018;28;20024;-77
2021/09/01 00:50:58;;;;;;;3.05;2.25;;;12.60;99.90;;;;;;5093119;28;20039;-77
2021/09/01 00:53:28;;;;;;;2.95;2.42;;;12.60;99.90;;;;;;5092089;28;20107;-77
2021/09/01 00:55:56;;;;;;;4.30;2.63;;;12.60;99.90;;;;;;5074267;28;20028;-77
2021/09/01 00:58:22;;;;;;;3.28;2.95;;;12.60;99.90;;;;;;5077155;28;20530;-77
2021/09/01 01:03:29;;;;;;;2.45;1.95;;;12.50;99.90;;;;;;5104185;28;20036;-77
2021/09/01 01:05:56;;;;;;;3.28;2.25;;;12.50;99.90;;;;;;5094207;28;20062;-78
2021/09/01 01:08:22;;;;;;;3.80;3.47;;;12.50;99.90;;;;;;5093742;28;20477;-77
2021/09/01 01:10:48;;;;;;;6.32;4.93;;;12.50;99.90;;;;;;5094183;28;20024;-77
2021/09/01 01:13:17;;;;;;;3.63;3.22;;;12.50;99.90;;;;;;5105308;28;20492;-76
2021/09/01 01:15:43;;;;;;;2.45;2.33;;;12.50;99.90;;;;;;5093586;28;20027;-77
2021/09/01 01:18:12;;;;;;;3.28;2.95;;;12.50;99.90;;;;;;5106932;28;20529;-77
2021/09/01 01:20:39;;;;;;;3.20;2.90;;;12.40;99.90;;;;;;5109318;28;20012;-77
2021/09/01 01:23:09;;;;;;;3.38;3.08;;;12.40;99.90;;;;;;5108484;28;20170;-78
2021/09/01 01:25:39;;;;;;;4.18;3.28;;;12.40;99.90;;;;;;5093723;28;20550;-77
2021/09/01 01:28:07;;;;;;;3.22;2.92;;;12.40;99.90;;;;;;5092614;28;20511;-77
2021/09/01 01:30:33;;;;;;;6.57;4.38;;;12.40;99.90;;;;;;5109468;28;20062;-77
2021/09/01 01:32:59;;;;;;;5.70;4.40;;;12.30;99.90;;;;;;5093469;28;20031;-77
2021/09/01 01:35:39;;;;;;;5.30;4.72;;;12.30;99.90;;;;;;5093163;28;20020;-77
2021/09/01 01:38:07;;;;;;;4.85;3.83;;;12.30;99.90;;;;;;5106084;28;20566;-78
2021/09/01 01:40:34;;;;;;;3.83;3.47;;;12.30;99.90;;;;;;5089547;28;20020;-77
2021/09/01 01:43:00;;;;;;;3.78;3.47;;;12.30;99.90;;;;;;5090536;28;20123;-77
2021/09/01 01:45:41;;;;;;;3.38;3.08;;;12.20;99.90;;;;;;5093695;28;20047;-77
2021/09/01 01:48:08;;;;;;;4.07;2.92;;;12.20;99.90;;;;;;5106354;28;20020;-77
2021/09/01 01:50:35;;;;;;;3.63;3.33;;;12.20;99.90;;;;;;5073224;28;20386;-77
2021/09/01 01:53:01;;;;;;;4.72;3.13;;;12.20;99.90;;;;;;5073036;28;20107;-77
2021/09/01 01:55:26;;;;;;;3.35;3.05;;;12.20;99.90;;;;;;5086340;28;20448;-77
2021/09/01 01:57:52;;;;;;;4.18;3.63;;;12.20;99.90;;;;;;5102855;28;20051;-77
2021/09/01 02:00:18;;;;;;;3.05;2.75;;;12.20;99.90;;;;;;5085421;28;20060;-77
2021/09/01 02:02:43;;;;;;;3.72;3.25;;;12.10;99.90;;;;;;5072773;28;20017;-77
2021/09/01 02:05:10;;;;;;;2.97;2.67;;;12.10;99.90;;;;;;5085372;28;20039;-77
2021/09/01 02:07:36;;;;;;;4.03;3.63;;;12.10;99.90;;;;;;5108922;28;20104;-77
2021/09/01 02:10:03;;;;;;;4.15;3.80;;;12.10;99.90;;;;;;5075688;28;20036;-77
2021/09/01 02:12:29;;;;;;;4.30;3.65;;;12.10;99.90;;;;;;5091053;28;20022;-77
2021/09/01 02:15:02;;;;;;;4.45;3.85;;;12.10;99.90;;;;;;5099912;28;20110;-77
2021/09/01 02:17:29;;;;;;;3.63;3.33;;;12.10;99.90;;;;;;5107166;28;20020;-77
2021/09/01 02:19:55;;;;;;;4.10;3.72;;;12.10;99.90;;;;;;5103787;28;20038;-78
2021/09/01 02:22:21;;;;;;;4.68;4.25;;;12.10;99.90;;;;;;5104674;28;20031;-77
2021/09/01 02:24:47;;;;;;;5.25;4.13;;;12.10;99.90;;;;;;5088627;28;20032;-77
2021/09/01 02:27:13;;;;;;;5.53;4.63;;;12.00;99.90;;;;;;5093120;28;20024;-77
2021/09/01 02:29:39;;;;;;;5.57;4.55;;;12.10;99.90;;;;;;5089447;28;20085;-77
2021/09/01 02:32:06;;;;;;;6.28;5.05;;;12.00;99.90;;;;;;5108728;28;20063;-77
2021/09/01 02:34:32;;;;;;;4.80;4.30;;;12.00;99.90;;;;;;5089283;28;20024;-77
2021/09/01 02:36:58;;;;;;;5.25;4.45;;;12.00;99.90;;;;;;5092983;28;20056;-77
2021/09/01 02:39:24;;;;;;;4.57;4.13;;;12.00;99.90;;;;;;5081330;28;20025;-77
2021/09/01 02:41:50;;;;;;;7.03;4.13;;;12.00;99.90;;;;;;5071313;28;20036;-77
2021/09/01 02:44:16;;;;;;;5.25;4.13;;;12.00;99.90;;;;;;5086172;28;20012;-77
2021/09/01 02:46:42;;;;;;;4.93;4.25;;;12.00;99.90;;;;;;5098224;28;20032;-78
2021/09/01 02:49:07;;;;;;;8.45;5.30;;;12.00;99.90;;;;;;5097796;28;20069;-77
2021/09/01 02:51:33;;;;;;;5.10;4.05;;;12.00;99.90;;;;;;5096751;28;20251;-77
2021/09/01 02:53:59;;;;;;;4.93;4.07;;;12.00;99.90;;;;;;5089687;28;20031;-77
2021/09/01 02:56:25;;;;;;;4.30;3.78;;;11.90;99.90;;;;;;5077925;28;20031;-77
2021/09/01 02:58:50;;;;;;;6.03;3.80;;;12.00;99.90;;;;;;5081077;28;20111;-77
2021/09/01 03:01:16;;;;;;;3.78;3.47;;;11.90;99.90;;;;;;5097290;28;20016;-77
2021/09/01 03:03:41;;;;;;;4.10;3.70;;;12.00;99.90;;;;;;5086727;28;20393;-77
2021/09/01 03:06:07;;;;;;;2.85;2.65;;;12.00;99.90;;;;;;5091199;28;20393;-77
2021/09/01 03:08:33;;;;;;;3.53;2.97;;;11.90;99.90;;;;;;5104322;28;20016;-77
2021/09/01 03:10:59;;;;;;;3.97;3.20;;;11.90;99.90;;;;;;5074993;28;20035;-77
2021/09/01 03:13:24;;;;;;;3.33;3.10;;;11.90;99.90;;;;;;5087104;28;20374;-78
2021/09/01 03:15:50;;;;;;;3.20;2.90;;;11.90;99.90;;;;;;5109049;28;20028;-77
2021/09/01 03:18:16;;;;;;;3.97;3.50;;;11.90;99.90;;;;;;5101000;27;20013;-77
2021/09/01 03:20:41;;;;;;;2.65;2.45;;;11.90;99.90;;;;;;5124687;27;20041;-77
2021/09/01 03:23:07;;;;;;;2.50;2.30;;;11.90;99.90;;;;;;5109637;28;20464;-77
2021/09/01 03:25:33;;;;;;;4.78;3.22;;;11.90;99.90;;;;;;5074500;28;20367;-77
2021/09/01 03:28:02;;;;;;;3.28;2.28;;;11.90;99.90;;;;;;5076190;28;20178;-77
2021/09/01 03:30:29;;;;;;;3.60;2.72;;;11.90;99.90;;;;;;5074568;28;20393;-77
2021/09/01 03:32:55;;;;;;;2.83;2.50;;;11.90;99.90;;;;;;5074268;28;20034;-77
2021/09/01 03:35:21;;;;;;;3.05;2.63;;;11.90;99.90;;;;;;5094552;28;20381;-77
2021/09/01 03:37:47;;;;;;;3.53;2.60;;;11.90;99.90;;;;;;5110364;28;20039;-77
2021/09/01 03:40:13;;;;;;;3.22;2.80;;;11.90;99.90;;;;;;5091766;28;20420;-76
2021/09/01 03:42:40;;;;;;;3.38;3.08;;;11.90;99.90;;;;;;5095398;28;20021;-76
2021/09/01 03:45:06;;;;;;;3.60;3.10;;;11.80;99.90;;;;;;5099137;28;20043;-76
2021/09/01 03:47:32;;;;;;;4.18;3.22;;;11.90;99.90;;;;;;5114998;28;20065;-78
2021/09/01 03:49:58;;;;;;;3.72;3.42;;;11.90;99.90;;;;;;5093776;28;20052;-78
2021/09/01 03:52:23;;;;;;;5.07;4.47;;;11.80;99.90;;;;;;5095339;28;20032;-78
2021/09/01 03:54:49;;;;;;;6.07;4.90;;;11.80;99.90;;;;;;5086294;28;20031;-77
2021/09/01 03:57:14;;;;;;;8.40;6.22;;;11.90;99.90;;;;;;5082090;28;20017;-78
2021/09/01 03:59:40;;;;;;;9.20;5.90;;;11.90;99.90;;;;;;5085702;28;20023;-78
2021/09/01 04:02:07;;;;;;;8.30;5.30;;;11.90;99.90;;;;;;5076452;28;20539;-78
2021/09/01 04:04:34;;;;;;;8.40;5.93;;;11.90;99.90;;;;;;5076742;28;20424;-77
2021/09/01 04:07:00;;;;;;;9.05;7.20;;;11.90;99.90;;;;;;5090872;28;20382;-77
2021/09/01 04:09:26;;;;;;;9.68;7.25;;;11.80;99.90;;;;;;5073929;28;20466;-77
2021/09/01 04:11:52;;;;;;;10.50;7.78;;;11.80;99.90;;;;;;5075049;28;20024;-76
2021/09/01 04:14:17;;;;;;;11.82;8.18;;;11.80;99.90;;;;;;5075105;28;20089;-77
2021/09/01 04:16:43;;;;;;;13.20;8.70;;;11.80;99.90;;;;;;5093033;28;20069;-76
2021/09/01 04:19:08;;;;;;;9.43;8.43;;;11.80;99.90;;;;;;5093840;28;20035;-76
2021/09/01 04:21:34;;;;;;;13.63;9.90;;;11.80;99.90;;;;;;5110888;28;20035;-77
2021/09/01 04:24:00;;;;;;;13.52;9.32;;;11.80;99.90;;;;;;5095564;28;20381;-77
2021/09/01 04:26:25;;;;;;;10.95;8.35;;;11.80;99.90;;;;;;5110726;28;20032;-77
2021/09/01 04:28:51;;;;;;;12.25;9.40;;;11.80;99.90;;;;;;5095638;28;20120;-77
2021/09/01 04:31:16;;;;;;;12.45;9.80;;;11.90;99.90;;;;;;5103980;28;20059;-77
2021/09/01 04:33:42;;;;;;;10.27;8.27;;;11.80;99.90;;;;;;5096417;28;20477;-76
2021/09/01 04:36:08;;;;;;;10.85;8.23;;;11.80;99.90;;;;;;5093479;28;20097;-77
2021/09/01 04:38:33;;;;;;;13.23;9.50;;;11.80;99.90;;;;;;5096514;28;20085;-77
2021/09/01 04:40:59;;;;;;;12.23;9.57;;;11.90;99.90;;;;;;5074337;28;20379;-76
2021/09/01 04:43:25;;;;;;;11.48;8.52;;;11.80;99.90;;;;;;5083152;28;20028;-76
2021/09/01 04:45:50;;;;;;;12.98;9.35;;;11.90;99.90;;;;;;5092689;28;20086;-76
2021/09/01 04:48:16;;;;;;;12.95;8.82;;;11.90;99.90;;;;;;5093981;28;20538;-76
2021/09/01 04:50:41;;;;;;;16.30;10.07;;;11.90;99.90;;;;;;5080899;28;20028;-76
2021/09/01 04:53:07;;;;;;;14.30;9.48;;;11.90;99.90;;;;;;5088603;28;20039;-76
2021/09/01 04:55:33;;;;;;;13.40;8.52;;;11.90;99.90;;;;;;5082304;28;20048;-76
2021/09/01 04:58:00;;;;;;;10.15;8.20;;;12.00;99.90;;;;;;5085121;28;20023;-78
2021/09/01 05:00:26;;;;;;;12.35;8.57;;;12.00;99.90;;;;;;5097770;28;20028;-77
2021/09/01 05:02:52;;;;;;;13.48;9.60;;;12.00;99.90;;;;;;5096155;28;20108;-77
2021/09/01 05:05:18;;;;;;;11.38;9.88;;;12.00;99.90;;;;;;5088050;28;20131;-76
2021/09/01 05:07:43;;;;;;;12.00;8.85;;;12.00;99.90;;;;;;5083092;28;20077;-77
2021/09/01 05:10:10;;;;;;;11.20;8.60;;;12.00;99.90;;;;;;5086364;28;21471;-77
2021/09/01 05:12:35;;;;;;;10.93;7.93;;;12.00;99.90;;;;;;5094946;28;20052;-77
2021/09/01 05:15:02;;;;;;;10.45;8.43;;;12.00;99.90;;;;;;5085579;28;20090;-77
2021/09/01 05:17:28;;;;;;;10.88;8.00;;;12.00;99.90;;;;;;5085646;28;20024;-77
2021/09/01 05:19:53;;;;;;;8.30;7.30;;;12.00;99.90;;;;;;5091796;28;20016;-77
2021/09/01 05:22:21;;;;;;;10.60;7.70;;;12.00;99.90;;;;;;5085126;28;20469;-77
2021/09/01 05:25:06;;;;;;;8.90;7.18;;;12.00;99.90;;;;;;5100150;28;20078;-77
2021/09/01 05:27:34;;;;;;;7.50;6.57;;;12.00;99.90;;;;;;5084835;28;20024;-77
2021/09/01 05:30:01;;;;;;;7.05;6.35;;;12.00;99.90;;;;;;5093130;28;20381;-77
2021/09/01 05:32:29;;;;;;;7.82;6.30;;;12.00;99.90;;;;;;5088724;28;20474;-77
2021/09/01 05:35:00;;;;;;;6.22;5.63;;;12.00;99.90;;;;;;5098043;28;20039;-77
2021/09/01 05:37:27;;;;;;;5.70;5.13;;;12.00;99.90;;;;;;5085440;28;20048;-77
2021/09/01 05:39:55;;;;;;;6.72;5.40;;;12.00;99.90;;;;;;5081698;28;20025;-77
2021/09/01 05:42:24;;;;;;;6.03;5.43;;;12.00;99.90;;;;;;5097009;28;20060;-78
2021/09/01 05:44:50;;;;;;;6.40;5.65;;;12.00;99.90;;;;;;5094390;28;20025;-77
2021/09/01 05:47:18;;;;;;;6.32;5.72;;;12.00;99.90;;;;;;5079968;28;20067;-78
2021/09/01 05:49:46;;;;;;;7.43;5.18;;;12.00;99.90;;;;;;5087125;28;20028;-77
2021/09/01 05:52:12;;;;;;;6.65;5.28;;;12.00;99.90;;;;;;5092299;28;20547;-77
2021/09/01 05:54:43;;;;;;;6.07;5.03;;;12.00;99.90;;;;;;5082662;28;20039;-77
2021/09/01 05:57:11;;;;;;;6.07;5.47;;;12.00;99.90;;;;;;5073536;28;20115;-77
2021/09/01 05:59:56;;;;;;;7.45;5.57;;;12.00;99.90;;;;;;5085487;28;20434;-77
2021/09/01 06:02:40;;;;;;;5.60;5.03;;;12.00;99.90;;;;;;5091415;28;20020;-76
2021/09/01 06:05:08;;;;;;;6.05;5.22;;;12.00;99.90;;;;;;5091005;28;20062;-76
2021/09/01 06:07:34;;;;;;;6.07;5.35;;;12.00;99.90;;;;;;5093693;28;20111;-76
2021/09/01 06:10:02;;;;;;;5.90;4.07;;;12.00;99.90;;;;;;5104576;28;20024;-77
2021/09/01 06:12:30;;;;;;;5.18;4.28;;;12.00;99.90;;;;;;5092797;28;20473;-77
2021/09/01 06:14:57;;;;;;;5.55;4.47;;;12.00;99.90;;;;;;5108658;28;20065;-76
2021/09/01 06:17:23;;;;;;;6.07;5.05;;;12.00;99.90;;;;;;5103793;28;20016;-77
2021/09/01 06:19:49;;;;;;;7.13;4.82;;;12.10;99.90;;;;;;5093927;28;20170;-77
2021/09/01 06:22:16;;;;;;;5.80;4.65;;;12.00;99.90;;;;;;5092216;28;20481;-77
2021/09/01 06:24:42;;;;;;;6.13;5.18;;;12.10;99.90;;;;;;5109306;27;20031;-77
2021/09/01 06:27:08;;;;;;;5.78;4.55;;;12.10;99.90;;;;;;5092709;28;20105;-77
2021/09/01 06:29:34;;;;;;;5.32;4.70;;;12.10;99.90;;;;;;5092891;28;20111;-76
2021/09/01 06:31:59;;;;;;;4.50;4.10;;;12.10;99.90;;;;;;5093672;28;20566;-76
2021/09/01 06:34:25;;;;;;;4.20;3.80;;;12.10;99.90;;;;;;5094143;28;20020;-77
2021/09/01 06:36:51;;;;;;;3.80;3.40;;;12.10;99.90;;;;;;5093079;28;20546;-77
2021/09/01 06:39:17;;;;;;;4.93;3.95;;;12.10;99.90;;;;;;5103611;28;20057;-76
2021/09/01 06:41:43;;;;;;;4.75;3.92;;;12.10;99.90;;;;;;5111314;28;20035;-79
2021/09/01 06:44:09;;;;;;;5.15;4.03;;;12.10;99.90;;;;;;5093499;28;20024;-79
2021/09/01 06:46:35;;;;;;;3.30;3.00;;;12.10;99.90;;;;;;5085659;28;20048;-78
2021/09/01 06:49:01;;;;;;;5.22;3.40;;;12.10;99.90;;;;;;5080084;28;20036;-77
2021/09/01 06:51:26;;;;;;;4.57;3.67;;;12.10;99.90;;;;;;5090209;28;20081;-77
2021/09/01 06:53:52;;;;;;;3.75;3.28;;;12.10;99.90;;;;;;5086100;28;20082;-78
2021/09/01 06:56:19;;;;;;;5.18;3.72;;;12.10;99.90;;;;;;5079987;28;20020;-78
2021/09/01 06:58:45;;;;;;;3.08;2.75;;;12.10;99.90;;;;;;5096379;28;20098;-77
2021/09/01 07:01:11;;;;;;;4.82;3.55;;;12.10;99.90;;;;;;5076652;28;20020;-78
2021/09/01 07:03:36;;;;;;;4.57;3.78;;;12.10;99.90;;;;;;5101510;28;20424;-77
2021/09/01 07:06:02;;;;;;;4.88;3.45;;;12.10;99.90;;;;;;5106905;28;20088;-77
2021/09/01 07:08:28;;;;;;;4.53;4.13;;;12.10;99.90;;;;;;5098116;28;20035;-77
2021/09/01 07:10:53;;;;;;;4.32;3.67;;;12.10;99.90;;;;;;5106885;28;20016;-78
2021/09/01 07:13:19;;;;;;;4.18;3.72;;;12.10;99.90;;;;;;5106732;28;20102;-77
2021/09/01 07:15:45;;;;;;;6.43;3.97;;;12.10;99.90;;;;;;5094762;28;20154;-76
2021/09/01 07:18:11;;;;;;;6.18;4.60;;;12.10;99.90;;;;;;5070910;28;20059;-76
2021/09/01 07:20:38;;;;;;;4.22;3.83;;;12.10;99.90;;;;;;5122016;28;20224;-77
2021/09/01 07:23:04;;;;;;;5.10;4.30;;;12.20;99.90;;;;;;5078153;28;20129;-77
2021/09/01 07:25:32;;;;;;;4.50;3.80;;;12.20;99.90;;;;;;5076165;28;20046;-77
2021/09/01 07:27:59;;;;;;;5.80;5.05;;;12.20;99.90;;;;;;5078867;28;20032;-78
2021/09/01 07:30:24;;;;;;;5.85;4.82;;;12.20;99.90;;;;;;5088332;28;20546;-77
2021/09/01 07:32:50;;;;;;;7.53;6.45;;;12.20;99.90;;;;;;5088736;28;20111;-77
2021/09/01 07:35:16;;;;;;;6.70;6.00;;;12.20;99.90;;;;;;5091715;28;20534;-77
2021/09/01 07:37:43;;;;;;;10.13;6.25;;;12.30;99.90;;;;;;5087986;28;20063;-77
2021/09/01 07:40:10;;;;;;;7.32;6.50;;;12.30;99.90;;;;;;5099533;28;20034;-75
2021/09/01 07:42:35;;;;;;;6.07;5.47;;;12.30;99.90;;;;;;5090244;28;20028;-76
2021/09/01 07:45:01;;;;;;;8.70;5.60;;;12.20;99.90;;;;;;5084937;28;20385;-75
2021/09/01 07:47:27;;;;;;;8.77;5.38;;;12.30;99.90;;;;;;5090397;28;20058;-75
2021/09/01 07:49:53;;;;;;;6.85;5.63;;;12.30;99.90;;;;;;5083090;28;20384;-75
2021/09/01 07:52:18;;;;;;;6.95;5.82;;;12.40;99.90;;;;;;5083828;28;20029;-76
2021/09/01 07:54:44;;;;;;;7.80;6.30;;;12.40;99.90;;;;;;5088472;28;20044;-76
2021/09/01 07:57:09;;;;;;;8.52;6.25;;;12.40;99.90;;;;;;5099573;28;20147;-75
2021/09/01 07:59:35;;;;;;;7.72;6.80;;;12.40;99.90;;;;;;5085839;28;20036;-76
2021/09/01 08:02:01;;;;;;;10.55;7.60;;;12.40;99.90;;;;;;5076534;28;20028;-76
2021/09/01 08:04:26;;;;;;;12.02;8.75;;;12.50;99.90;;;;;;5079049;28;20378;-77
2021/09/01 08:06:52;;;;;;;11.68;9.10;;;12.50;99.90;;;;;;5076720;28;20405;-76
2021/09/01 08:09:20;;;;;;;15.60;12.35;;;12.50;99.90;;;;;;5091255;28;20381;-76
2021/09/01 08:11:45;;;;;;;16.88;13.38;;;12.50;99.90;;;;;;5091187;28;20122;-76
2021/09/01 08:14:11;;;;;;;17.85;13.93;;;12.50;99.90;;;;;;5093157;28;20055;-76
2021/09/01 08:16:36;;;;;;;20.88;14.60;;;12.50;99.90;;;;;;5096888;28;20373;-76
2021/09/01 08:19:02;;;;;;;22.23;15.35;;;12.50;99.90;;;;;;5094870;28;20025;-76
2021/09/01 08:21:28;;;;;;;20.98;14.68;;;12.50;99.90;;;;;;5091604;28;20119;-76
2021/09/01 08:23:53;;;;;;;19.40;13.68;;;12.50;99.90;;;;;;5091276;28;20357;-77
2021/09/01 08:26:19;;;;;;;18.15;13.55;;;12.50;99.90;;;;;;5092227;28;20036;-77
2021/09/01 08:28:45;;;;;;;19.17;14.07;;;12.60;99.90;;;;;;5090127;28;20508;-78
2021/09/01 08:31:11;;;;;;;19.90;14.63;;;12.50;99.90;;;;;;5091374;28;20035;-77
2021/09/01 08:33:37;;;;;;;22.00;16.65;;;12.50;99.90;;;;;;5086455;28;20463;-77
2021/09/01 08:36:04;;;;;;;23.10;15.55;;;12.60;99.90;;;;;;5081781;28;20024;-77
2021/09/01 08:38:29;;;;;;;24.38;15.90;;;12.70;99.90;;;;;;5091735;28;20481;-77
2021/09/01 08:40:55;;;;;;;21.13;15.98;;;12.70;99.90;;;;;;5091720;28;20022;-76
2021/09/01 08:43:21;;;;;;;21.60;15.88;;;12.70;99.90;;;;;;5087792;28;20090;-77
2021/09/01 08:45:48;;;;;;;18.95;13.73;;;12.80;99.90;;;;;;5077282;28;20443;-76
2021/09/01 08:48:16;;;;;;;26.17;16.42;;;12.90;99.90;;;;;;5093781;28;20441;-77
2021/09/01 08:50:42;;;;;;;22.27;15.77;;;13.00;99.90;;;;;;5098552;28;20035;-77
2021/09/01 08:53:08;;;;;;;20.08;15.23;;;13.00;99.90;;;;;;5095302;28;20448;-78
2021/09/01 08:55:33;;;;;;;24.90;17.13;;;13.00;99.90;;;;;;5094492;28;20048;-76
2021/09/01 08:58:00;;;;;;;22.20;17.45;;;13.10;99.90;;;;;;5094569;28;20503;-77
2021/09/01 09:00:26;;;;;;;25.45;18.33;;;13.10;99.90;;;;;;5094017;28;20028;-77
2021/09/01 09:02:57;;;;;;;22.70;16.10;;;13.10;99.90;;;;;;5074267;28;20017;-77
2021/09/01 09:05:37;;;;;;;26.85;18.63;;;13.10;99.90;;;;;;5101688;28;20492;-77
2021/09/01 09:08:06;;;;;;;26.38;18.40;;;13.20;99.90;;;;;;5109551;28;20028;-77
2021/09/01 09:10:43;;;;;;;28.25;18.05;;;13.10;99.90;;;;;;5080071;28;20025;-77
2021/09/01 09:13:25;;;;;;;26.65;18.42;;;13.20;99.90;;;;;;5089631;28;20028;-77
2021/09/01 09:16:08;;;;;;;25.67;18.25;;;13.20;99.90;;;;;;5081890;28;20020;-76
2021/09/01 09:18:35;;;;;;;25.05;17.27;;;13.20;99.90;;;;;;5093935;28;20081;-77
2021/09/01 09:21:21;;;;;;;27.00;17.63;;;13.20;99.90;;;;;;5094043;28;20377;-77
2021/09/01 09:23:50;;;;;;;25.95;17.40;;;13.20;99.90;;;;;;5093643;28;20036;-77
2021/09/01 09:26:30;;;;;;;26.13;16.98;;;13.30;99.90;;;;;;5091487;28;20039;-77
2021/09/01 09:29:10;;;;;;;26.63;17.67;;;13.40;99.90;;;;;;5077857;28;20031;-78
2021/09/01 09:31:37;;;;;;;28.77;17.17;;;13.50;99.90;;;;;;5086053;28;20047;-77
2021/09/01 09:34:07;;;;;;;25.83;18.45;;;13.60;99.90;;;;;;5084204;28;20120;-77
2021/09/01 09:36:34;;;;;;;24.00;16.50;;;13.80;99.90;;;;;;5087434;28;20028;-76
2021/09/01 09:38:59;;;;;;;22.00;16.42;;;13.80;99.90;;;;;;5087669;28;20024;-78
2021/09/01 09:41:27;;;;;;;27.77;20.08;;;13.80;99.90;;;;;;5089252;28;20382;-76
2021/09/01 09:43:56;;;;;;;23.42;16.58;;;13.80;99.90;;;;;;5091092;28;20065;-77
2021/09/01 09:46:22;;;;;;;23.67;17.65;;;13.80;99.90;;;;;;5085728;28;20031;-76
2021/09/01 09:48:49;;;;;;;23.90;17.13;;;13.80;99.90;;;;;;5088820;28;20028;-76
2021/09/01 09:51:19;;;;;;;23.95;17.40;;;13.90;99.90;;;;;;5077616;28;20036;-76
2021/09/01 09:53:50;;;;;;;23.33;16.65;;;13.90;99.90;;;;;;5077143;28;20019;-76
2021/09/01 09:56:28;;;;;;;20.67;16.63;;;14.00;99.90;;;;;;5091092;28;20047;-77
2021/09/01 09:58:56;;;;;;;22.05;16.45;;;14.00;99.90;;;;;;5087786;28;20378;-77
2021/09/01 10:01:25;;;;;;;26.00;17.63;;;14.10;99.90;;;;;;5089869;28;20020;-76
2021/09/01 10:03:52;;;;;;;23.02;16.42;;;14.20;99.90;;;;;;5087017;28;20485;-75
2021/09/01 10:06:19;;;;;;;18.40;15.15;;;14.20;99.90;;;;;;5091016;28;20048;-76
2021/09/01 10:08:47;;;;;;;22.40;16.15;;;14.30;99.90;;;;;;5090107;28;20055;-75
2021/09/01 10:11:15;;;;;;;24.45;16.52;;;14.60;99.90;;;;;;5086762;28;20036;-75
2021/09/01 10:13:44;;;;;;;22.70;15.65;;;14.70;99.90;;;;;;5088553;28;20393;-75
2021/09/01 10:16:23;;;;;;;20.55;15.48;;;14.90;99.90;;;;;;5090797;28;20032;-76
2021/09/01 10:19:08;;;;;;;17.65;14.30;;;15.00;99.90;;;;;;5089754;28;20173;-76
2021/09/01 10:21:37;;;;;;;19.92;14.32;;;14.90;99.90;;;;;;5087670;28;20478;-75
2021/09/01 10:24:27;;;;;;;17.40;14.30;;;14.80;99.90;;;;;;5088709;28;20031;-75
2021/09/01 10:27:22;;;;;;;15.93;13.82;;;14.80;99.90;;;;;;5081255;28;20037;-76
2021/09/01 10:29:58;;;;;;;17.63;12.88;;;14.90;99.90;;;;;;5083751;28;20052;-76
2021/09/01 10:32:29;;;;;;;17.13;12.13;;;14.80;99.90;;;;;;5087933;28;20035;-75
2021/09/01 10:35:15;;;;;;;16.08;11.20;;;14.80;99.90;;;;;;5078180;28;20486;-76
2021/09/01 10:37:54;;;;;;;17.25;11.30;;;14.90;99.90;;;;;;5080989;28;20078;-76
2021/09/01 10:40:23;;;;;;;12.70;9.95;;;15.20;99.90;;;;;;5089268;28;20606;-76
2021/09/01 10:42:50;;;;;;;14.25;10.73;;;15.30;99.90;;;;;;5084871;28;20036;-76
2021/09/01 10:45:37;;;;;;;12.93;10.27;;;15.40;99.90;;;;;;5087971;28;20032;-75
2021/09/01 10:48:09;;;;;;;14.23;9.07;;;15.80;99.90;;;;;;5080435;28;20114;-75
2021/09/01 10:50:38;;;;;;;11.48;8.32;;;16.10;99.90;;;;;;5084940;28;20421;-77
2021/09/01 10:53:18;;;;;;;8.25;7.28;;;16.30;99.90;;;;;;5076340;28;20035;-77
2021/09/01 10:55:54;;;;;;;10.95;7.90;;;16.20;99.90;;;;;;5087816;28;20047;-77
2021/09/01 10:58:37;;;;;;;8.18;7.32;;;16.10;99.90;;;;;;5074779;28;20016;-78
2021/09/01 11:01:07;;;;;;;12.68;7.88;;;15.90;99.90;;;;;;5078817;28;20559;-78
2021/09/01 11:03:40;;;;;;;12.10;8.07;;;15.80;99.90;;;;;;5082599;28;20055;-76
2021/09/01 11:06:26;;;;;;;8.88;7.38;;;15.70;99.90;;;;;;5081228;28;20052;-76
2021/09/01 11:09:12;;;;;;;10.82;7.63;;;15.50;99.90;;;;;;5084242;28;20115;-76
2021/09/01 11:11:54;;;;;;;11.02;8.10;;;15.50;99.90;;;;;;5104959;28;20431;-76
2021/09/01 11:14:30;;;;;;;11.35;7.03;;;15.90;99.90;;;;;;5085607;28;20103;-76
2021/09/01 11:17:00;;;;;;;11.02;6.57;;;16.00;99.90;;;;;;5088408;28;20016;-75
2021/09/01 11:19:27;;;;;;;9.60;6.40;;;16.10;99.90;;;;;;5088412;28;20026;-75
2021/09/01 11:21:55;;;;;;;10.25;6.25;;;15.90;99.90;;;;;;5092906;28;20012;-76
2021/09/01 11:24:21;;;;;;;7.90;5.93;;;15.90;99.90;;;;;;5084754;28;20031;-76
2021/09/01 11:26:53;;;;;;;9.25;6.05;;;15.80;99.90;;;;;;5075199;28;20045;-76
2021/09/01 11:29:28;;;;;;;8.57;5.82;;;15.90;99.90;;;;;;5074646;28;20016;-76
2021/09/01 11:31:53;;;;;;;10.18;6.97;;;15.90;99.90;;;;;;5092106;28;20040;-76
2021/09/01 11:34:19;;;;;;;9.20;6.85;;;15.80;99.90;;;;;;5082009;28;20043;-76
2021/09/01 11:36:45;;;;;;;13.65;9.15;;;15.70;99.90;;;;;;5077876;28;20078;-75
2021/09/01 11:39:12;;;;;;;14.95;7.53;;;15.60;99.90;;;;;;5087658;28;20081;-75
2021/09/01 11:41:38;;;;;;;11.35;7.40;;;15.70;99.90;;;;;;5078196;28;20513;-76
2021/09/01 11:44:07;;;;;;;9.38;5.30;;;16.00;99.90;;;;;;5082409;28;20529;-76
2021/09/01 11:46:36;;;;;;;8.15;5.40;;;16.20;99.90;;;;;;5087956;28;20383;-76
2021/09/01 11:49:15;;;;;;;9.13;5.80;;;16.20;99.90;;;;;;5085377;28;20035;-76
2021/09/01 11:51:43;;;;;;;8.15;5.40;;;16.40;99.90;;;;;;5084947;28;20024;-76
2021/09/01 11:54:10;;;;;;;7.75;5.00;;;16.50;99.90;;;;;;5087632;28;20610;-76
2021/09/01 11:56:37;;;;;;;9.80;6.03;;;16.60;99.90;;;;;;5080685;28;20055;-76
2021/09/01 11:59:05;;;;;;;9.57;5.90;;;16.70;99.90;;;;;;5085730;28;20028;-76
2021/09/01 12:01:34;;;;;;;10.02;6.10;;;16.70;99.90;;;;;;5079880;28;20028;-76
2021/09/01 12:04:00;;;;;;;8.82;5.85;;;16.70;99.90;;;;;;5076033;28;20150;-76
2021/09/01 12:06:41;;;;;;;7.85;5.53;;;16.90;99.90;;;;;;5080506;28;20048;-76
2021/09/01 12:09:12;;;;;;;7.07;5.53;;;17.10;99.90;;;;;;5084323;28;20165;-76
2021/09/01 12:11:38;;;;;;;8.68;5.95;;;17.10;99.90;;;;;;5083947;28;20535;-76
2021/09/01 12:14:06;;;;;;;11.27;6.43;;;16.80;99.90;;;;;;5079876;28;20103;-76
2021/09/01 12:16:34;;;;;;;8.13;5.10;;;16.70;99.90;;;;;;5084201;28;20036;-77
2021/09/01 12:19:11;;;;;;;6.72;4.80;;;16.50;99.90;;;;;;5087865;28;20473;-76
2021/09/01 12:21:50;;;;;;;6.60;5.50;;;16.70;99.90;;;;;;5091887;28;20040;-76
2021/09/01 12:24:25;;;;;;;12.38;5.75;;;16.80;99.90;;;;;;5088400;28;20485;-76
2021/09/01 12:27:07;;;;;;;10.77;5.03;;;16.90;99.70;;;;;;5089463;28;20044;-77
2021/09/01 12:29:39;;;;;;;6.43;4.40;;;17.00;99.90;;;;;;5085522;28;20114;-76
2021/09/01 12:32:08;;;;;;;7.22;4.63;;;17.00;98.70;;;;;;5084470;28;20051;-77
2021/09/01 12:34:43;;;;;;;7.32;5.20;;;17.10;99.90;;;;;;5085177;28;20025;-77
2021/09/01 12:37:26;;;;;;;7.60;5.32;;;17.00;99.90;;;;;;5088035;28;20542;-77
2021/09/01 12:40:06;;;;;;;7.68;5.90;;;16.80;99.90;;;;;;5089717;28;20024;-77
2021/09/01 12:42:43;;;;;;;8.63;5.43;;;16.80;99.90;;;;;;5087598;28;20020;-77
2021/09/01 12:45:10;;;;;;;11.55;5.70;;;16.90;99.90;;;;;;5088735;28;20031;-78
2021/09/01 12:47:50;;;;;;;10.48;6.10;;;17.00;99.90;;;;;;5090265;28;20031;-77
2021/09/01 12:50:17;;;;;;;8.27;5.07;;;17.20;99.90;;;;;;5097149;28;20116;-78